sensor_id;sensor_type;location;lat;lon;timestamp;P1;durP1;ratioP1;P2;durP2;ratioP2
68140;SDS011;54941;52.220;104.306;2024-03-17T00:00:27;13.07;;;7.47;;
68140;SDS011;54941;52.220;104.306;2024-03-17T00:02:53;12.02;;;7.05;;
68140;SDS011;54941;52.220;104.306;2024-03-17T00:05:21;14.05;;;7.90;;
68140;SDS011;54941;52.220;104.306;2024-03-17T00:07:47;12.00;;;6.55;;
68140;SDS011;54941;52.220;104.306;2024-03-17T00:10:14;12.43;;;7.65;;
68140;SDS011;54941;52.220;104.306;2024-03-17T00:12:41;15.20;;;7.05;;
68140;SDS011;54941;52.220;104.306;2024-03-17T00:15:07;11.65;;;6.45;;
68140;SDS011;54941;52.220;104.306;2024-03-17T00:17:34;12.70;;;6.55;;
68140;SDS011;54941;52.220;104.306;2024-03-17T00:20:00;18.08;;;8.48;;
68140;SDS011;54941;52.220;104.306;2024-03-17T00:22:29;13.13;;;6.45;;
68140;SDS011;54941;52.220;104.306;2024-03-17T00:24:55;16.23;;;7.28;;
68140;SDS011;54941;52.220;104.306;2024-03-17T00:27:21;18.05;;;7.47;;
68140;SDS011;54941;52.220;104.306;2024-03-17T00:29:48;13.02;;;7.00;;
68140;SDS011;54941;52.220;104.306;2024-03-17T00:32:14;14.38;;;6.13;;
68140;SDS011;54941;52.220;104.306;2024-03-17T00:34:40;15.13;;;7.82;;
68140;SDS011;54941;52.220;104.306;2024-03-17T00:37:07;11.88;;;6.85;;
68140;SDS011;54941;52.220;104.306;2024-03-17T00:39:34;14.00;;;6.55;;
68140;SDS011;54941;52.220;104.306;2024-03-17T00:42:01;13.95;;;6.95;;
68140;SDS011;54941;52.220;104.306;2024-03-17T00:44:27;11.05;;;6.28;;
68140;SDS011;54941;52.220;104.306;2024-03-17T00:46:53;13.13;;;6.57;;
68140;SDS011;54941;52.220;104.306;2024-03-17T00:49:19;12.05;;;5.72;;
68140;SDS011;54941;52.220;104.306;2024-03-17T00:51:46;12.38;;;6.35;;
68140;SDS011;54941;52.220;104.306;2024-03-17T00:54:12;13.27;;;6.07;;
68140;SDS011;54941;52.220;104.306;2024-03-17T00:56:40;10.63;;;6.13;;
68140;SDS011;54941;52.220;104.306;2024-03-17T00:59:06;9.82;;;4.60;;
68140;SDS011;54941;52.220;104.306;2024-03-17T01:01:32;8.75;;;4.45;;
68140;SDS011;54941;52.220;104.306;2024-03-17T01:03:59;10.68;;;5.15;;
68140;SDS011;54941;52.220;104.306;2024-03-17T01:06:25;8.55;;;4.10;;
68140;SDS011;54941;52.220;104.306;2024-03-17T01:08:51;10.40;;;5.28;;
68140;SDS011;54941;52.220;104.306;2024-03-17T01:11:17;9.57;;;4.85;;
68140;SDS011;54941;52.220;104.306;2024-03-17T01:13:45;8.88;;;4.80;;
68140;SDS011;54941;52.220;104.306;2024-03-17T01:16:11;10.65;;;5.72;;
68140;SDS011;54941;52.220;104.306;2024-03-17T01:18:38;8.68;;;3.97;;
68140;SDS011;54941;52.220;104.306;2024-03-17T01:21:04;10.18;;;5.10;;
68140;SDS011;54941;52.220;104.306;2024-03-17T01:23:31;9.43;;;4.88;;
68140;SDS011;54941;52.220;104.306;2024-03-17T01:25:59;7.68;;;5.00;;
68140;SDS011;54941;52.220;104.306;2024-03-17T01:28:25;9.73;;;4.53;;
68140;SDS011;54941;52.220;104.306;2024-03-17T01:30:53;7.85;;;4.28;;
68140;SDS011;54941;52.220;104.306;2024-03-17T01:33:19;8.35;;;4.15;;
68140;SDS011;54941;52.220;104.306;2024-03-17T01:35:46;7.80;;;3.83;;
68140;SDS011;54941;52.220;104.306;2024-03-17T01:38:12;7.95;;;4.35;;
68140;SDS011;54941;52.220;104.306;2024-03-17T01:40:38;8.55;;;3.92;;
68140;SDS011;54941;52.220;104.306;2024-03-17T01:43:05;9.90;;;5.22;;
68140;SDS011;54941;52.220;104.306;2024-03-17T01:45:35;8.55;;;4.38;;
68140;SDS011;54941;52.220;104.306;2024-03-17T01:48:03;8.98;;;4.90;;
68140;SDS011;54941;52.220;104.306;2024-03-17T01:50:34;7.88;;;3.70;;
68140;SDS011;54941;52.220;104.306;2024-03-17T01:53:02;8.00;;;4.43;;
68140;SDS011;54941;52.220;104.306;2024-03-17T01:55:31;6.05;;;3.38;;
68140;SDS011;54941;52.220;104.306;2024-03-17T01:57:57;6.72;;;4.30;;
68140;SDS011;54941;52.220;104.306;2024-03-17T02:00:24;7.22;;;4.10;;
68140;SDS011;54941;52.220;104.306;2024-03-17T02:02:51;8.50;;;4.10;;
68140;SDS011;54941;52.220;104.306;2024-03-17T02:05:19;6.70;;;3.85;;
68140;SDS011;54941;52.220;104.306;2024-03-17T02:07:45;6.53;;;3.72;;
68140;SDS011;54941;52.220;104.306;2024-03-17T02:10:12;6.68;;;3.63;;
68140;SDS011;54941;52.220;104.306;2024-03-17T02:12:38;7.30;;;3.40;;
68140;SDS011;54941;52.220;104.306;2024-03-17T02:15:06;7.20;;;3.42;;
68140;SDS011;54941;52.220;104.306;2024-03-17T02:17:34;7.97;;;3.45;;
68140;SDS011;54941;52.220;104.306;2024-03-17T02:20:00;7.05;;;3.35;;
68140;SDS011;54941;52.220;104.306;2024-03-17T02:22:31;7.72;;;4.00;;
68140;SDS011;54941;52.220;104.306;2024-03-17T02:24:57;6.75;;;3.72;;
68140;SDS011;54941;52.220;104.306;2024-03-17T02:27:23;7.68;;;3.92;;
68140;SDS011;54941;52.220;104.306;2024-03-17T02:29:49;7.40;;;3.45;;
68140;SDS011;54941;52.220;104.306;2024-03-17T02:32:16;7.32;;;3.78;;
68140;SDS011;54941;52.220;104.306;2024-03-17T02:34:42;7.40;;;3.60;;
68140;SDS011;54941;52.220;104.306;2024-03-17T02:37:08;7.47;;;3.30;;
68140;SDS011;54941;52.220;104.306;2024-03-17T02:39:36;7.25;;;3.80;;
68140;SDS011;54941;52.220;104.306;2024-03-17T02:42:03;6.30;;;3.55;;
68140;SDS011;54941;52.220;104.306;2024-03-17T02:44:29;7.00;;;4.25;;
68140;SDS011;54941;52.220;104.306;2024-03-17T02:46:56;6.78;;;3.10;;
68140;SDS011;54941;52.220;104.306;2024-03-17T02:49:23;6.22;;;3.70;;
68140;SDS011;54941;52.220;104.306;2024-03-17T02:51:49;6.57;;;3.70;;
68140;SDS011;54941;52.220;104.306;2024-03-17T02:54:15;6.95;;;4.05;;
68140;SDS011;54941;52.220;104.306;2024-03-17T02:56:43;7.72;;;3.63;;
68140;SDS011;54941;52.220;104.306;2024-03-17T02:59:10;6.53;;;3.30;;
68140;SDS011;54941;52.220;104.306;2024-03-17T03:01:36;8.30;;;4.22;;
68140;SDS011;54941;52.220;104.306;2024-03-17T03:04:02;7.45;;;3.60;;
68140;SDS011;54941;52.220;104.306;2024-03-17T03:06:29;9.23;;;4.07;;
68140;SDS011;54941;52.220;104.306;2024-03-17T03:08:55;7.72;;;4.07;;
68140;SDS011;54941;52.220;104.306;2024-03-17T03:11:21;7.72;;;3.80;;
68140;SDS011;54941;52.220;104.306;2024-03-17T03:13:49;6.75;;;3.50;;
68140;SDS011;54941;52.220;104.306;2024-03-17T03:16:15;6.82;;;3.70;;
68140;SDS011;54941;52.220;104.306;2024-03-17T03:18:41;6.10;;;4.07;;
68140;SDS011;54941;52.220;104.306;2024-03-17T03:21:08;7.28;;;4.15;;
68140;SDS011;54941;52.220;104.306;2024-03-17T03:23:34;7.05;;;3.22;;
68140;SDS011;54941;52.220;104.306;2024-03-17T03:26:01;6.60;;;3.35;;
68140;SDS011;54941;52.220;104.306;2024-03-17T03:28:29;10.70;;;3.55;;
68140;SDS011;54941;52.220;104.306;2024-03-17T03:30:58;9.10;;;3.55;;
68140;SDS011;54941;52.220;104.306;2024-03-17T03:33:24;7.10;;;4.15;;
68140;SDS011;54941;52.220;104.306;2024-03-17T03:35:51;8.20;;;3.97;;
68140;SDS011;54941;52.220;104.306;2024-03-17T03:38:17;7.32;;;4.35;;
68140;SDS011;54941;52.220;104.306;2024-03-17T03:40:43;6.82;;;3.30;;
68140;SDS011;54941;52.220;104.306;2024-03-17T03:43:10;7.15;;;3.60;;
68140;SDS011;54941;52.220;104.306;2024-03-17T03:45:37;8.05;;;4.00;;
68140;SDS011;54941;52.220;104.306;2024-03-17T03:48:05;7.80;;;4.20;;
68140;SDS011;54941;52.220;104.306;2024-03-17T03:50:32;5.80;;;3.33;;
68140;SDS011;54941;52.220;104.306;2024-03-17T03:52:58;6.70;;;3.30;;
68140;SDS011;54941;52.220;104.306;2024-03-17T03:55:24;5.85;;;3.05;;
68140;SDS011;54941;52.220;104.306;2024-03-17T03:57:51;8.48;;;3.88;;
68140;SDS011;54941;52.220;104.306;2024-03-17T04:00:17;6.32;;;3.30;;
68140;SDS011;54941;52.220;104.306;2024-03-17T04:02:44;7.05;;;4.32;;
68140;SDS011;54941;52.220;104.306;2024-03-17T04:05:12;10.20;;;3.53;;
68140;SDS011;54941;52.220;104.306;2024-03-17T04:07:38;6.25;;;3.13;;
68140;SDS011;54941;52.220;104.306;2024-03-17T04:10:05;6.32;;;3.40;;
68140;SDS011;54941;52.220;104.306;2024-03-17T04:12:32;5.70;;;2.55;;
68140;SDS011;54941;52.220;104.306;2024-03-17T04:14:59;6.00;;;3.47;;
68140;SDS011;54941;52.220;104.306;2024-03-17T04:17:26;8.75;;;3.60;;
68140;SDS011;54941;52.220;104.306;2024-03-17T04:19:52;7.68;;;4.63;;
68140;SDS011;54941;52.220;104.306;2024-03-17T04:22:20;11.95;;;4.85;;
68140;SDS011;54941;52.220;104.306;2024-03-17T04:24:46;9.55;;;5.07;;
68140;SDS011;54941;52.220;104.306;2024-03-17T04:27:13;8.07;;;3.58;;
68140;SDS011;54941;52.220;104.306;2024-03-17T04:29:42;6.95;;;3.40;;
68140;SDS011;54941;52.220;104.306;2024-03-17T04:32:08;7.60;;;3.63;;
68140;SDS011;54941;52.220;104.306;2024-03-17T04:34:35;6.32;;;3.92;;
68140;SDS011;54941;52.220;104.306;2024-03-17T04:37:01;7.13;;;3.67;;
68140;SDS011;54941;52.220;104.306;2024-03-17T04:39:29;6.25;;;3.58;;
68140;SDS011;54941;52.220;104.306;2024-03-17T04:41:55;6.43;;;3.65;;
68140;SDS011;54941;52.220;104.306;2024-03-17T04:44:21;6.35;;;3.67;;
68140;SDS011;54941;52.220;104.306;2024-03-17T04:46:48;7.63;;;4.03;;
68140;SDS011;54941;52.220;104.306;2024-03-17T04:49:14;5.50;;;3.08;;
68140;SDS011;54941;52.220;104.306;2024-03-17T04:51:40;5.65;;;3.03;;
68140;SDS011;54941;52.220;104.306;2024-03-17T04:54:07;6.20;;;3.50;;
68140;SDS011;54941;52.220;104.306;2024-03-17T04:56:34;6.28;;;3.60;;
68140;SDS011;54941;52.220;104.306;2024-03-17T04:59:01;6.70;;;3.58;;
68140;SDS011;54941;52.220;104.306;2024-03-17T05:01:27;6.18;;;3.75;;
68140;SDS011;54941;52.220;104.306;2024-03-17T05:03:53;6.95;;;3.78;;
68140;SDS011;54941;52.220;104.306;2024-03-17T05:06:20;6.88;;;3.65;;
68140;SDS011;54941;52.220;104.306;2024-03-17T05:08:46;7.07;;;3.20;;
68140;SDS011;54941;52.220;104.306;2024-03-17T05:11:12;6.28;;;3.20;;
68140;SDS011;54941;52.220;104.306;2024-03-17T05:13:40;7.55;;;3.92;;
68140;SDS011;54941;52.220;104.306;2024-03-17T05:16:06;8.20;;;4.75;;
68140;SDS011;54941;52.220;104.306;2024-03-17T05:18:33;6.35;;;2.90;;
68140;SDS011;54941;52.220;104.306;2024-03-17T05:21:00;5.38;;;3.60;;
68140;SDS011;54941;52.220;104.306;2024-03-17T05:23:27;8.00;;;3.28;;
68140;SDS011;54941;52.220;104.306;2024-03-17T05:25:54;6.47;;;3.90;;
68140;SDS011;54941;52.220;104.306;2024-03-17T05:28:21;7.97;;;4.45;;
68140;SDS011;54941;52.220;104.306;2024-03-17T05:30:49;6.95;;;4.00;;
68140;SDS011;54941;52.220;104.306;2024-03-17T05:33:16;7.20;;;3.33;;
68140;SDS011;54941;52.220;104.306;2024-03-17T05:35:48;7.70;;;4.07;;
68140;SDS011;54941;52.220;104.306;2024-03-17T05:38:14;6.50;;;3.10;;
68140;SDS011;54941;52.220;104.306;2024-03-17T05:40:41;6.88;;;3.58;;
68140;SDS011;54941;52.220;104.306;2024-03-17T05:43:07;6.90;;;3.38;;
68140;SDS011;54941;52.220;104.306;2024-03-17T05:45:33;6.57;;;4.00;;
68140;SDS011;54941;52.220;104.306;2024-03-17T05:48:01;6.43;;;3.38;;
68140;SDS011;54941;52.220;104.306;2024-03-17T05:50:27;7.65;;;3.75;;
68140;SDS011;54941;52.220;104.306;2024-03-17T05:52:54;7.32;;;4.13;;
68140;SDS011;54941;52.220;104.306;2024-03-17T05:55:20;6.68;;;3.50;;
68140;SDS011;54941;52.220;104.306;2024-03-17T05:57:46;7.32;;;3.72;;
68140;SDS011;54941;52.220;104.306;2024-03-17T06:00:13;6.50;;;3.30;;
68140;SDS011;54941;52.220;104.306;2024-03-17T06:02:39;7.05;;;3.38;;
68140;SDS011;54941;52.220;104.306;2024-03-17T06:05:07;6.63;;;3.05;;
68140;SDS011;54941;52.220;104.306;2024-03-17T06:07:34;7.28;;;3.60;;
68140;SDS011;54941;52.220;104.306;2024-03-17T06:10:00;7.22;;;3.33;;
68140;SDS011;54941;52.220;104.306;2024-03-17T06:12:35;6.78;;;3.90;;
68140;SDS011;54941;52.220;104.306;2024-03-17T06:15:02;6.97;;;3.40;;
68140;SDS011;54941;52.220;104.306;2024-03-17T06:17:29;7.55;;;4.18;;
68140;SDS011;54941;52.220;104.306;2024-03-17T06:19:55;6.85;;;4.03;;
68140;SDS011;54941;52.220;104.306;2024-03-17T06:22:23;6.75;;;3.13;;
68140;SDS011;54941;52.220;104.306;2024-03-17T06:24:49;7.38;;;3.38;;
68140;SDS011;54941;52.220;104.306;2024-03-17T06:27:16;6.75;;;3.33;;
68140;SDS011;54941;52.220;104.306;2024-03-17T06:29:42;5.57;;;3.13;;
68140;SDS011;54941;52.220;104.306;2024-03-17T06:32:08;8.63;;;4.65;;
68140;SDS011;54941;52.220;104.306;2024-03-17T06:34:35;9.10;;;4.15;;
68140;SDS011;54941;52.220;104.306;2024-03-17T06:37:01;6.90;;;4.28;;
68140;SDS011;54941;52.220;104.306;2024-03-17T06:39:29;9.35;;;4.35;;
68140;SDS011;54941;52.220;104.306;2024-03-17T06:41:55;7.57;;;4.25;;
68140;SDS011;54941;52.220;104.306;2024-03-17T06:44:21;7.97;;;3.38;;
68140;SDS011;54941;52.220;104.306;2024-03-17T06:46:47;6.78;;;3.92;;
68140;SDS011;54941;52.220;104.306;2024-03-17T06:49:14;7.07;;;3.83;;
68140;SDS011;54941;52.220;104.306;2024-03-17T06:51:40;5.32;;;3.20;;
68140;SDS011;54941;52.220;104.306;2024-03-17T06:54:08;6.63;;;3.50;;
68140;SDS011;54941;52.220;104.306;2024-03-17T06:56:36;6.18;;;3.38;;
68140;SDS011;54941;52.220;104.306;2024-03-17T06:59:02;6.25;;;3.00;;
68140;SDS011;54941;52.220;104.306;2024-03-17T07:01:28;7.03;;;3.30;;
68140;SDS011;54941;52.220;104.306;2024-03-17T07:03:55;6.07;;;2.70;;
68140;SDS011;54941;52.220;104.306;2024-03-17T07:06:21;7.10;;;3.53;;
68140;SDS011;54941;52.220;104.306;2024-03-17T07:08:47;5.88;;;3.33;;
68140;SDS011;54941;52.220;104.306;2024-03-17T07:11:14;6.05;;;3.10;;
68140;SDS011;54941;52.220;104.306;2024-03-17T07:13:42;5.80;;;2.83;;
68140;SDS011;54941;52.220;104.306;2024-03-17T07:16:08;5.82;;;3.42;;
68140;SDS011;54941;52.220;104.306;2024-03-17T07:18:34;5.40;;;3.20;;
68140;SDS011;54941;52.220;104.306;2024-03-17T07:21:03;7.63;;;4.30;;
68140;SDS011;54941;52.220;104.306;2024-03-17T07:23:30;8.57;;;4.32;;
68140;SDS011;54941;52.220;104.306;2024-03-17T07:25:58;8.55;;;3.80;;
68140;SDS011;54941;52.220;104.306;2024-03-17T07:28:25;7.57;;;4.05;;
68140;SDS011;54941;52.220;104.306;2024-03-17T07:30:53;8.75;;;3.95;;
68140;SDS011;54941;52.220;104.306;2024-03-17T07:33:21;7.97;;;3.78;;
68140;SDS011;54941;52.220;104.306;2024-03-17T07:35:48;7.43;;;3.30;;
68140;SDS011;54941;52.220;104.306;2024-03-17T07:38:15;6.75;;;3.90;;
68140;SDS011;54941;52.220;104.306;2024-03-17T07:40:42;7.05;;;2.97;;
68140;SDS011;54941;52.220;104.306;2024-03-17T07:43:09;6.90;;;3.17;;
68140;SDS011;54941;52.220;104.306;2024-03-17T07:45:35;7.88;;;3.92;;
68140;SDS011;54941;52.220;104.306;2024-03-17T07:48:03;6.32;;;4.00;;
68140;SDS011;54941;52.220;104.306;2024-03-17T07:50:30;7.20;;;3.45;;
68140;SDS011;54941;52.220;104.306;2024-03-17T07:52:56;8.32;;;3.75;;
68140;SDS011;54941;52.220;104.306;2024-03-17T07:55:22;8.88;;;4.05;;
68140;SDS011;54941;52.220;104.306;2024-03-17T07:57:49;8.60;;;4.38;;
68140;SDS011;54941;52.220;104.306;2024-03-17T08:00:15;7.43;;;3.90;;
68140;SDS011;54941;52.220;104.306;2024-03-17T08:02:42;8.68;;;3.33;;
68140;SDS011;54941;52.220;104.306;2024-03-17T08:05:11;8.15;;;3.90;;
68140;SDS011;54941;52.220;104.306;2024-03-17T08:07:38;10.95;;;4.10;;
68140;SDS011;54941;52.220;104.306;2024-03-17T08:10:05;9.25;;;3.70;;
68140;SDS011;54941;52.220;104.306;2024-03-17T08:12:31;12.38;;;4.90;;
68140;SDS011;54941;52.220;104.306;2024-03-17T08:14:58;9.85;;;4.45;;
68140;SDS011;54941;52.220;104.306;2024-03-17T08:17:24;9.77;;;4.30;;
68140;SDS011;54941;52.220;104.306;2024-03-17T08:19:50;15.38;;;4.82;;
68140;SDS011;54941;52.220;104.306;2024-03-17T08:22:18;8.57;;;4.07;;
68140;SDS011;54941;52.220;104.306;2024-03-17T08:24:44;10.35;;;4.57;;
68140;SDS011;54941;52.220;104.306;2024-03-17T08:27:11;11.48;;;4.70;;
68140;SDS011;54941;52.220;104.306;2024-03-17T08:29:37;10.93;;;5.28;;
68140;SDS011;54941;52.220;104.306;2024-03-17T08:32:03;11.82;;;4.32;;
68140;SDS011;54941;52.220;104.306;2024-03-17T08:34:30;8.40;;;4.03;;
68140;SDS011;54941;52.220;104.306;2024-03-17T08:36:56;9.32;;;3.72;;
68140;SDS011;54941;52.220;104.306;2024-03-17T08:39:24;8.27;;;4.43;;
68140;SDS011;54941;52.220;104.306;2024-03-17T08:41:51;6.90;;;4.25;;
68140;SDS011;54941;52.220;104.306;2024-03-17T08:44:17;13.95;;;4.85;;
68140;SDS011;54941;52.220;104.306;2024-03-17T08:46:43;8.65;;;4.05;;
68140;SDS011;54941;52.220;104.306;2024-03-17T08:49:09;9.18;;;4.03;;
68140;SDS011;54941;52.220;104.306;2024-03-17T08:51:36;12.00;;;6.00;;
68140;SDS011;54941;52.220;104.306;2024-03-17T08:54:02;8.82;;;4.72;;
68140;SDS011;54941;52.220;104.306;2024-03-17T08:56:30;19.80;;;9.68;;
68140;SDS011;54941;52.220;104.306;2024-03-17T08:58:56;9.38;;;4.60;;
68140;SDS011;54941;52.220;104.306;2024-03-17T09:01:22;20.02;;;5.68;;
68140;SDS011;54941;52.220;104.306;2024-03-17T09:03:49;10.65;;;4.57;;
68140;SDS011;54941;52.220;104.306;2024-03-17T09:06:15;10.30;;;4.45;;
68140;SDS011;54941;52.220;104.306;2024-03-17T09:08:42;9.93;;;4.03;;
68140;SDS011;54941;52.220;104.306;2024-03-17T09:11:09;9.68;;;5.18;;
68140;SDS011;54941;52.220;104.306;2024-03-17T09:13:39;9.13;;;4.82;;
68140;SDS011;54941;52.220;104.306;2024-03-17T09:16:06;10.52;;;5.50;;
68140;SDS011;54941;52.220;104.306;2024-03-17T09:18:32;8.52;;;5.20;;
68140;SDS011;54941;52.220;104.306;2024-03-17T09:21:00;12.77;;;5.07;;
68140;SDS011;54941;52.220;104.306;2024-03-17T09:23:27;10.98;;;5.72;;
68140;SDS011;54941;52.220;104.306;2024-03-17T09:25:57;11.00;;;5.53;;
68140;SDS011;54941;52.220;104.306;2024-03-17T09:28:24;14.40;;;6.95;;
68140;SDS011;54941;52.220;104.306;2024-03-17T09:30:52;13.63;;;5.78;;
68140;SDS011;54941;52.220;104.306;2024-03-17T09:33:19;14.75;;;6.47;;
68140;SDS011;54941;52.220;104.306;2024-03-17T09:35:52;19.52;;;7.70;;
68140;SDS011;54941;52.220;104.306;2024-03-17T09:38:22;16.25;;;6.07;;
68140;SDS011;54941;52.220;104.306;2024-03-17T09:40:48;12.68;;;6.47;;
68140;SDS011;54941;52.220;104.306;2024-03-17T09:43:15;14.38;;;7.13;;
68140;SDS011;54941;52.220;104.306;2024-03-17T09:45:42;15.85;;;6.80;;
68140;SDS011;54941;52.220;104.306;2024-03-17T09:48:09;14.43;;;6.40;;
68140;SDS011;54941;52.220;104.306;2024-03-17T09:50:40;14.27;;;7.10;;
68140;SDS011;54941;52.220;104.306;2024-03-17T09:53:07;17.20;;;6.70;;
68140;SDS011;54941;52.220;104.306;2024-03-17T09:55:41;15.23;;;6.75;;
68140;SDS011;54941;52.220;104.306;2024-03-17T09:58:08;13.77;;;6.07;;
68140;SDS011;54941;52.220;104.306;2024-03-17T10:00:41;13.73;;;5.30;;
68140;SDS011;54941;52.220;104.306;2024-03-17T10:03:07;11.93;;;5.55;;
68140;SDS011;54941;52.220;104.306;2024-03-17T10:05:35;10.77;;;5.45;;
68140;SDS011;54941;52.220;104.306;2024-03-17T10:08:01;11.32;;;5.85;;
68140;SDS011;54941;52.220;104.306;2024-03-17T10:10:28;11.05;;;5.30;;
68140;SDS011;54941;52.220;104.306;2024-03-17T10:12:54;9.65;;;5.10;;
68140;SDS011;54941;52.220;104.306;2024-03-17T10:15:21;11.85;;;5.32;;
68140;SDS011;54941;52.220;104.306;2024-03-17T10:17:47;13.15;;;5.75;;
68140;SDS011;54941;52.220;104.306;2024-03-17T10:20:18;13.00;;;6.75;;
68140;SDS011;54941;52.220;104.306;2024-03-17T10:22:58;12.73;;;5.60;;
68140;SDS011;54941;52.220;104.306;2024-03-17T10:25:25;12.07;;;6.60;;
68140;SDS011;54941;52.220;104.306;2024-03-17T10:27:52;17.05;;;6.65;;
68140;SDS011;54941;52.220;104.306;2024-03-17T10:30:19;18.13;;;6.82;;
68140;SDS011;54941;52.220;104.306;2024-03-17T10:32:45;14.25;;;6.15;;
68140;SDS011;54941;52.220;104.306;2024-03-17T10:35:26;20.52;;;8.60;;
68140;SDS011;54941;52.220;104.306;2024-03-17T10:37:57;21.13;;;7.45;;
68140;SDS011;54941;52.220;104.306;2024-03-17T10:40:24;21.80;;;6.80;;
68140;SDS011;54941;52.220;104.306;2024-03-17T10:42:51;14.13;;;6.60;;
68140;SDS011;54941;52.220;104.306;2024-03-17T10:45:18;13.48;;;5.93;;
68140;SDS011;54941;52.220;104.306;2024-03-17T10:47:46;9.02;;;4.43;;
68140;SDS011;54941;52.220;104.306;2024-03-17T10:50:16;11.93;;;4.80;;
68140;SDS011;54941;52.220;104.306;2024-03-17T10:52:46;10.27;;;4.50;;
68140;SDS011;54941;52.220;104.306;2024-03-17T10:55:18;14.70;;;5.40;;
68140;SDS011;54941;52.220;104.306;2024-03-17T10:57:46;17.52;;;6.03;;
68140;SDS011;54941;52.220;104.306;2024-03-17T11:00:14;18.15;;;6.38;;
68140;SDS011;54941;52.220;104.306;2024-03-17T11:02:43;13.55;;;5.60;;
68140;SDS011;54941;52.220;104.306;2024-03-17T11:05:11;14.50;;;6.13;;
68140;SDS011;54941;52.220;104.306;2024-03-17T11:07:41;23.73;;;6.93;;
68140;SDS011;54941;52.220;104.306;2024-03-17T11:10:10;18.02;;;6.05;;
68140;SDS011;54941;52.220;104.306;2024-03-17T11:12:41;29.92;;;6.95;;
68140;SDS011;54941;52.220;104.306;2024-03-17T11:21:03;21.63;;;6.32;;
68140;SDS011;54941;52.220;104.306;2024-03-17T11:23:31;23.88;;;5.95;;
68140;SDS011;54941;52.220;104.306;2024-03-17T11:25:59;24.55;;;6.85;;
68140;SDS011;54941;52.220;104.306;2024-03-17T11:28:45;20.83;;;6.95;;
68140;SDS011;54941;52.220;104.306;2024-03-17T11:34:01;19.65;;;7.60;;
68140;SDS011;54941;52.220;104.306;2024-03-17T11:36:38;37.00;;;10.15;;
68140;SDS011;54941;52.220;104.306;2024-03-17T11:39:04;36.65;;;9.43;;
68140;SDS011;54941;52.220;104.306;2024-03-17T11:41:39;38.50;;;9.93;;
68140;SDS011;54941;52.220;104.306;2024-03-17T11:44:13;34.55;;;9.18;;
68140;SDS011;54941;52.220;104.306;2024-03-17T11:46:40;26.27;;;8.90;;
68140;SDS011;54941;52.220;104.306;2024-03-17T11:49:07;32.35;;;12.25;;
68140;SDS011;54941;52.220;104.306;2024-03-17T11:51:37;24.88;;;7.95;;
68140;SDS011;54941;52.220;104.306;2024-03-17T11:54:05;24.30;;;9.27;;
68140;SDS011;54941;52.220;104.306;2024-03-17T11:56:31;43.55;;;15.10;;
68140;SDS011;54941;52.220;104.306;2024-03-17T11:59:08;56.92;;;16.88;;
68140;SDS011;54941;52.220;104.306;2024-03-17T12:01:35;38.28;;;12.95;;
68140;SDS011;54941;52.220;104.306;2024-03-17T12:04:03;41.33;;;12.15;;
68140;SDS011;54941;52.220;104.306;2024-03-17T12:06:30;35.17;;;10.20;;
68140;SDS011;54941;52.220;104.306;2024-03-17T12:09:07;33.65;;;9.95;;
68140;SDS011;54941;52.220;104.306;2024-03-17T12:11:34;28.10;;;8.13;;
68140;SDS011;54941;52.220;104.306;2024-03-17T12:14:00;38.00;;;11.13;;
68140;SDS011;54941;52.220;104.306;2024-03-17T12:16:46;32.28;;;7.45;;
68140;SDS011;54941;52.220;104.306;2024-03-17T12:19:12;25.13;;;9.32;;
68140;SDS011;54941;52.220;104.306;2024-03-17T12:21:40;34.10;;;8.88;;
68140;SDS011;54941;52.220;104.306;2024-03-17T12:24:11;30.15;;;8.88;;
68140;SDS011;54941;52.220;104.306;2024-03-17T12:26:41;26.00;;;8.98;;
68140;SDS011;54941;52.220;104.306;2024-03-17T12:29:23;33.40;;;9.82;;
68140;SDS011;54941;52.220;104.306;2024-03-17T12:31:51;32.20;;;10.00;;
68140;SDS011;54941;52.220;104.306;2024-03-17T12:34:18;35.30;;;10.13;;
68140;SDS011;54941;52.220;104.306;2024-03-17T12:36:45;41.15;;;10.43;;
68140;SDS011;54941;52.220;104.306;2024-03-17T12:39:14;45.80;;;13.18;;
68140;SDS011;54941;52.220;104.306;2024-03-17T12:41:43;31.95;;;10.88;;
68140;SDS011;54941;52.220;104.306;2024-03-17T12:44:20;35.58;;;10.77;;
68140;SDS011;54941;52.220;104.306;2024-03-17T12:46:54;56.40;;;12.55;;
68140;SDS011;54941;52.220;104.306;2024-03-17T12:49:20;37.83;;;12.02;;
68140;SDS011;54941;52.220;104.306;2024-03-17T12:51:47;41.53;;;14.25;;
68140;SDS011;54941;52.220;104.306;2024-03-17T12:54:13;35.50;;;11.00;;
68140;SDS011;54941;52.220;104.306;2024-03-17T12:56:39;34.92;;;12.48;;
68140;SDS011;54941;52.220;104.306;2024-03-17T12:59:07;49.22;;;15.68;;
68140;SDS011;54941;52.220;104.306;2024-03-17T13:01:37;53.42;;;15.88;;
68140;SDS011;54941;52.220;104.306;2024-03-17T13:04:06;30.85;;;11.27;;
68140;SDS011;54941;52.220;104.306;2024-03-17T13:06:33;34.90;;;12.27;;
68140;SDS011;54941;52.220;104.306;2024-03-17T13:08:59;48.30;;;12.32;;
68140;SDS011;54941;52.220;104.306;2024-03-17T13:11:25;34.80;;;12.57;;
68140;SDS011;54941;52.220;104.306;2024-03-17T13:13:53;27.38;;;10.93;;
68140;SDS011;54941;52.220;104.306;2024-03-17T13:16:19;33.70;;;13.10;;
68140;SDS011;54941;52.220;104.306;2024-03-17T13:18:47;27.33;;;9.98;;
68140;SDS011;54941;52.220;104.306;2024-03-17T13:21:13;30.20;;;11.30;;
68140;SDS011;54941;52.220;104.306;2024-03-17T13:23:39;25.40;;;11.02;;
68140;SDS011;54941;52.220;104.306;2024-03-17T13:26:06;28.70;;;11.35;;
68140;SDS011;54941;52.220;104.306;2024-03-17T13:28:32;31.35;;;10.75;;
68140;SDS011;54941;52.220;104.306;2024-03-17T13:30:58;32.17;;;13.57;;
68140;SDS011;54941;52.220;104.306;2024-03-17T13:33:25;36.28;;;14.25;;
68140;SDS011;54941;52.220;104.306;2024-03-17T13:35:53;48.95;;;14.77;;
68140;SDS011;54941;52.220;104.306;2024-03-17T13:38:19;41.40;;;14.07;;
68140;SDS011;54941;52.220;104.306;2024-03-17T13:40:45;39.20;;;11.50;;
68140;SDS011;54941;52.220;104.306;2024-03-17T13:43:11;36.97;;;12.75;;
68140;SDS011;54941;52.220;104.306;2024-03-17T13:45:38;42.75;;;14.55;;
68140;SDS011;54941;52.220;104.306;2024-03-17T13:48:06;51.55;;;15.07;;
68140;SDS011;54941;52.220;104.306;2024-03-17T13:50:33;37.92;;;12.65;;
68140;SDS011;54941;52.220;104.306;2024-03-17T13:53:00;30.60;;;11.90;;
68140;SDS011;54941;52.220;104.306;2024-03-17T13:55:27;47.63;;;14.32;;
68140;SDS011;54941;52.220;104.306;2024-03-17T13:57:53;72.93;;;17.55;;
68140;SDS011;54941;52.220;104.306;2024-03-17T14:00:20;36.42;;;13.88;;
68140;SDS011;54941;52.220;104.306;2024-03-17T14:02:48;29.55;;;11.82;;
68140;SDS011;54941;52.220;104.306;2024-03-17T14:05:16;26.45;;;13.18;;
68140;SDS011;54941;52.220;104.306;2024-03-17T14:07:44;23.45;;;11.07;;
68140;SDS011;54941;52.220;104.306;2024-03-17T14:10:12;25.85;;;11.10;;
68140;SDS011;54941;52.220;104.306;2024-03-17T14:12:39;27.23;;;11.18;;
68140;SDS011;54941;52.220;104.306;2024-03-17T14:15:06;29.77;;;11.02;;
68140;SDS011;54941;52.220;104.306;2024-03-17T14:17:33;21.70;;;11.10;;
68140;SDS011;54941;52.220;104.306;2024-03-17T14:20:00;28.60;;;11.00;;
68140;SDS011;54941;52.220;104.306;2024-03-17T14:22:26;37.20;;;12.82;;